Hlavní strana
METAR-TAF:

METAR-TAF

Letiště :

Nukus, Uzbekistán

zeměpisná šířka: 42-28-48N, zeměpisná délka: 059-37-48E, výška: 77 m

Aktuální stav počasí

Zpráva byla vytvořena před 42 minutami, v 01:30 UTC
Západoseverozápadní vítr 2 kt
Teplota 14°C
Vlhkost vzduchu 63%
Tlak 1016 hPa
Viditelnost 10 km a více
Žádná oblačnost pod 1500 m, nevyskytují se cumulonimby.

METAR: UTNN 090130Z 29002KT CAVOK 14/07 Q1016 R33/CLRD60 NOSIG

Čas: 07:12 (02:12 UTC)

Předpověď počasí

Zpráva byla vytvořena před 3 hodinami a 12 minutami, v 23:00 UTC
Předpověď platná od 09 v 00 UTC do 09 v 24 UTC
vítr z různých směrů 4 kt
Viditelnost 10 km a více
Žádná oblačnost pod 1500 m, nevyskytují se cumulonimby.
Dočasný
od 09 v 08 UTC do 09 v 12 UTC
Severozápadní vítr 8 kt s nárazy do 18 kt

TAF: UTNN 082300Z 0900/0924 VRB04KT CAVOK TEMPO 0908/0912 32008G18KT

Stav a předpovědi počasí z více než 4 000 letišť (zprávy METAR a TAF).

Červené a žluté tečky na mapě představují dostupné meteorologické stanice.

Když kurzor umístíte na tečku, zobrazí se název stanice.

Pak kliknutím zobrazíte stav a předpověď počasí.

Chcete-li změnit mapu, kliknutím na zelené tlačítko se znaménkem +mapu přiblížíte, kliknutím na zelené tlačítko se znaménkem – mapu oddálíte a kliknutím na zelené šipky přejdete na sousední mapy.


METAR-TAF: